Time;durP1;ratioP1;P1;durP2;ratioP2;P2;SDS_P1;SDS_P2;PMS_P1;PMS_P2;Temp;Humidity;BMP_temperature;BMP_pressure;BME280_temperature;BME280_humidity;BME280_pressure;Samples;Min_cycle;Max_cycle;Signal;HPM_P1;HPM_P2
2022/01/14 00:00:48;;;;;;;17.17;3.58;;;;;;;;;;5071307;28;20162;-85
2022/01/14 00:03:15;;;;;;;18.13;3.70;;;;;;;;;;5071262;28;20053;-85
2022/01/14 00:05:42;;;;;;;17.60;4.07;;;;;;;;;;5071014;28;20059;-85
2022/01/14 00:08:09;;;;;;;17.83;4.07;;;;;;;;;;5064861;28;20102;-85
2022/01/14 00:10:37;;;;;;;17.98;4.07;;;;;;;;;;5071184;28;20072;-85
2022/01/14 00:13:26;;;;;;;20.48;4.13;;;;;;;;;;5069969;28;20139;-85
2022/01/14 00:15:53;;;;;;;22.80;3.90;;;;;;;;;;5071186;28;20076;-85
2022/01/14 00:18:20;;;;;;;20.17;3.35;;;;;;;;;;5069578;28;20056;-85
2022/01/14 00:20:47;;;;;;;21.67;3.50;;;;;;;;;;5071607;28;20096;-85
2022/01/14 00:23:14;;;;;;;21.20;4.10;;;;;;;;;;5071073;28;20524;-85
2022/01/14 00:34:01;;;;;;;26.05;4.50;;;;;;;;;;5063818;28;20131;-85
2022/01/14 00:36:28;;;;;;;15.35;3.97;;;;;;;;;;5070138;28;20087;-86
2022/01/14 00:38:55;;;;;;;10.65;3.28;;;;;;;;;;5070284;28;20144;-85
2022/01/14 00:41:22;;;;;;;26.00;5.18;;;;;;;;;;5071219;28;20144;-86
2022/01/14 00:43:59;;;;;;;14.88;3.63;;;;;;;;;;5070922;28;20072;-85
2022/01/14 00:46:26;;;;;;;20.63;3.35;;;;;;;;;;5071383;28;20155;-85
2022/01/14 00:48:53;;;;;;;16.30;3.97;;;;;;;;;;5069726;28;20059;-85
2022/01/14 00:51:21;;;;;;;15.07;3.22;;;;;;;;;;5070971;28;20140;-85
2022/01/14 00:53:48;;;;;;;20.85;3.70;;;;;;;;;;5066226;28;20079;-86
2022/01/14 00:56:30;;;;;;;15.23;3.65;;;;;;;;;;5050730;28;20084;-86
2022/01/14 00:59:15;;;;;;;19.23;3.38;;;;;;;;;;5071016;28;20136;-85
2022/01/14 01:01:51;;;;;;;17.02;3.38;;;;;;;;;;5064804;28;20053;-85
2022/01/14 01:04:19;;;;;;;22.70;4.32;;;;;;;;;;5071435;28;20048;-86
2022/01/14 01:06:47;;;;;;;21.25;3.42;;;;;;;;;;5069413;28;20095;-85
2022/01/14 01:09:15;;;;;;;17.10;2.75;;;;;;;;;;5070641;28;20083;-86
2022/01/14 01:11:51;;;;;;;14.27;3.40;;;;;;;;;;5070810;28;20049;-86
2022/01/14 01:14:24;;;;;;;13.15;2.60;;;;;;;;;;5057396;28;20037;-85
2022/01/14 01:16:51;;;;;;;18.48;2.67;;;;;;;;;;5071027;28;20049;-85
2022/01/14 01:19:18;;;;;;;12.10;2.58;;;;;;;;;;5073791;28;20072;-85
2022/01/14 01:21:46;;;;;;;14.85;2.25;;;;;;;;;;5074972;28;20072;-86
2022/01/14 01:24:15;;;;;;;15.35;2.63;;;;;;;;;;5074476;28;20110;-85
2022/01/14 01:26:43;;;;;;;21.13;3.83;;;;;;;;;;5074109;28;20106;-85
2022/01/14 01:31:39;;;;;;;20.55;2.78;;;;;;;;;;5072450;28;20072;-86
2022/01/14 01:34:12;;;;;;;10.85;2.25;;;;;;;;;;5072210;28;20056;-87
2022/01/14 01:36:40;;;;;;;12.13;2.42;;;;;;;;;;5073647;28;20055;-86
2022/01/14 01:39:09;;;;;;;16.95;2.85;;;;;;;;;;5072475;28;20084;-85
2022/01/14 01:41:37;;;;;;;17.98;2.65;;;;;;;;;;5073978;28;20091;-86
2022/01/14 01:44:13;;;;;;;15.93;2.40;;;;;;;;;;5072887;28;20449;-88
2022/01/14 01:46:43;;;;;;;11.05;2.42;;;;;;;;;;5074398;28;20125;-85
2022/01/14 01:49:11;;;;;;;14.95;2.67;;;;;;;;;;5072868;28;20075;-85
2022/01/14 01:51:38;;;;;;;17.88;3.22;;;;;;;;;;5072210;28;20140;-86
2022/01/14 01:54:06;;;;;;;30.23;4.40;;;;;;;;;;5070715;28;20161;-85
2022/01/14 01:56:33;;;;;;;17.90;3.53;;;;;;;;;;5072346;28;20135;-85
2022/01/14 01:59:04;;;;;;;11.65;4.18;;;;;;;;;;5071286;28;20417;-86
2022/01/14 02:01:31;;;;;;;11.57;3.22;;;;;;;;;;5071490;28;20072;-86
2022/01/14 02:03:58;;;;;;;24.40;4.97;;;;;;;;;;5072651;28;20131;-85
2022/01/14 02:06:26;;;;;;;17.38;4.28;;;;;;;;;;5071940;28;20080;-86
2022/01/14 02:08:53;;;;;;;16.08;4.68;;;;;;;;;;5087456;28;20052;-86
2022/01/14 02:11:20;;;;;;;21.65;4.50;;;;;;;;;;5073513;28;20048;-86
2022/01/14 02:13:50;;;;;;;20.00;5.03;;;;;;;;;;5069844;28;20131;-85
2022/01/14 02:16:30;;;;;;;22.05;5.45;;;;;;;;;;5073875;28;20059;-85
2022/01/14 02:19:24;;;;;;;18.30;6.25;;;;;;;;;;5073556;28;20123;-85
2022/01/14 02:22:11;;;;;;;22.25;5.85;;;;;;;;;;5073429;28;20132;-85
2022/01/14 02:27:14;;;;;;;22.85;4.70;;;;;;;;;;5073444;28;20120;-85
2022/01/14 02:29:42;;;;;;;24.90;4.88;;;;;;;;;;5071680;28;20086;-84
2022/01/14 02:32:10;;;;;;;18.42;4.97;;;;;;;;;;5071563;28;20501;-84
2022/01/14 02:34:38;;;;;;;18.10;5.00;;;;;;;;;;5077561;28;20118;-85
2022/01/14 02:37:05;;;;;;;25.48;5.45;;;;;;;;;;5078034;28;20080;-85
2022/01/14 02:39:33;;;;;;;17.55;5.03;;;;;;;;;;5076671;28;20125;-84
2022/01/14 02:42:00;;;;;;;18.83;4.47;;;;;;;;;;5072476;28;20083;-83
2022/01/14 02:44:30;;;;;;;25.25;5.22;;;;;;;;;;5071436;28;20820;-85
2022/01/14 02:47:04;;;;;;;27.23;4.53;;;;;;;;;;5071411;28;20889;-83
2022/01/14 02:49:33;;;;;;;29.05;5.50;;;;;;;;;;5071245;28;20048;-84
2022/01/14 02:52:03;;;;;;;22.80;5.35;;;;;;;;;;5073826;28;20064;-84
2022/01/14 02:54:38;;;;;;;25.17;5.38;;;;;;;;;;5072598;28;20557;-85
2022/01/14 02:57:07;;;;;;;21.42;4.32;;;;;;;;;;5068742;28;20083;-84
2022/01/14 02:59:35;;;;;;;24.58;4.78;;;;;;;;;;5066117;28;20124;-85
2022/01/14 03:02:03;;;;;;;18.40;4.35;;;;;;;;;;5066553;28;20074;-84
2022/01/14 03:04:36;;;;;;;24.85;4.28;;;;;;;;;;5070845;28;20362;-85
2022/01/14 03:07:04;;;;;;;24.00;5.03;;;;;;;;;;5072628;28;20752;-84
2022/01/14 03:09:32;;;;;;;23.02;5.20;;;;;;;;;;5072299;28;20045;-85
2022/01/14 03:12:01;;;;;;;24.67;4.13;;;;;;;;;;5072265;28;20071;-85
2022/01/14 03:14:29;;;;;;;31.02;4.95;;;;;;;;;;5072548;28;20722;-85
2022/01/14 03:16:59;;;;;;;24.73;4.13;;;;;;;;;;5072735;28;20151;-85
2022/01/14 03:19:27;;;;;;;17.00;4.43;;;;;;;;;;5071983;28;20590;-85
2022/01/14 03:22:06;;;;;;;23.58;4.45;;;;;;;;;;5071108;28;20076;-85
2022/01/14 03:27:05;;;;;;;18.65;4.57;;;;;;;;;;5071499;28;20091;-86
2022/01/14 03:29:32;;;;;;;16.65;4.03;;;;;;;;;;5072027;28;20087;-85
2022/01/14 03:32:00;;;;;;;24.65;5.47;;;;;;;;;;5071946;28;20045;-84
2022/01/14 03:34:27;;;;;;;20.17;4.68;;;;;;;;;;5070431;28;20127;-85
2022/01/14 03:36:55;;;;;;;28.20;4.60;;;;;;;;;;5071997;28;20083;-84
2022/01/14 03:39:22;;;;;;;17.70;5.63;;;;;;;;;;5071776;28;20136;-84
2022/01/14 03:41:53;;;;;;;20.67;5.22;;;;;;;;;;5070661;28;20512;-84
2022/01/14 03:44:20;;;;;;;18.08;5.85;;;;;;;;;;5051309;28;20596;-83
2022/01/14 03:46:48;;;;;;;15.60;4.70;;;;;;;;;;5058997;28;20851;-84
2022/01/14 03:49:15;;;;;;;21.13;5.47;;;;;;;;;;5069641;28;20094;-83
2022/01/14 03:51:42;;;;;;;17.90;5.20;;;;;;;;;;5071610;28;20122;-84
2022/01/14 03:54:10;;;;;;;22.13;5.20;;;;;;;;;;5050957;28;20093;-84
2022/01/14 03:56:37;;;;;;;25.35;6.28;;;;;;;;;;5075388;28;20135;-84
2022/01/14 03:59:04;;;;;;;18.88;5.57;;;;;;;;;;5070838;28;20759;-84
2022/01/14 04:01:31;;;;;;;20.42;6.15;;;;;;;;;;5071365;28;20045;-84
2022/01/14 04:03:59;;;;;;;16.27;5.35;;;;;;;;;;5071653;28;20056;-85
2022/01/14 04:06:27;;;;;;;26.77;6.15;;;;;;;;;;5069663;28;20087;-84
2022/01/14 04:08:55;;;;;;;20.50;5.13;;;;;;;;;;5071065;28;20044;-84
2022/01/14 04:11:22;;;;;;;24.25;6.95;;;;;;;;;;5070661;28;20132;-84
2022/01/14 04:13:53;;;;;;;19.40;6.00;;;;;;;;;;5069411;28;20080;-83
2022/01/14 04:16:22;;;;;;;23.65;5.82;;;;;;;;;;5070605;28;20084;-83
2022/01/14 04:18:50;;;;;;;22.65;6.60;;;;;;;;;;5070320;28;20049;-83
2022/01/14 04:21:17;;;;;;;18.95;7.28;;;;;;;;;;5070277;28;20678;-83
2022/01/14 04:23:46;;;;;;;18.52;7.13;;;;;;;;;;5070844;28;20463;-83
2022/01/14 04:26:16;;;;;;;16.58;5.85;;;;;;;;;;5069504;28;20080;-83
2022/01/14 04:28:43;;;;;;;17.33;6.25;;;;;;;;;;5069567;28;20714;-84
2022/01/14 04:31:11;;;;;;;19.95;6.60;;;;;;;;;;5069464;28;20044;-83
2022/01/14 04:33:38;;;;;;;24.00;6.50;;;;;;;;;;5069527;28;20048;-83
2022/01/14 04:36:06;;;;;;;23.67;5.63;;;;;;;;;;5071170;28;20131;-83
2022/01/14 04:38:34;;;;;;;22.75;5.90;;;;;;;;;;5068785;28;20485;-83
2022/01/14 04:41:01;;;;;;;20.38;4.85;;;;;;;;;;5069813;28;20139;-83
2022/01/14 04:43:29;;;;;;;14.15;4.85;;;;;;;;;;5070531;28;20159;-84
2022/01/14 04:48:31;;;;;;;18.23;4.85;;;;;;;;;;5070959;28;20067;-83
2022/01/14 04:50:59;;;;;;;18.55;4.63;;;;;;;;;;5070205;28;20804;-83
2022/01/14 04:53:27;;;;;;;16.00;4.47;;;;;;;;;;5072413;28;20076;-84
2022/01/14 04:55:55;;;;;;;17.65;5.70;;;;;;;;;;5073418;28;20070;-85
2022/01/14 04:58:23;;;;;;;16.10;4.65;;;;;;;;;;5073090;28;20055;-84
2022/01/14 05:00:50;;;;;;;13.70;3.97;;;;;;;;;;5073274;28;20460;-85
2022/01/14 05:03:17;;;;;;;16.25;4.15;;;;;;;;;;5073390;28;20424;-84
2022/01/14 05:05:48;;;;;;;11.00;4.18;;;;;;;;;;5083977;28;20101;-84
2022/01/14 05:08:39;;;;;;;21.63;4.43;;;;;;;;;;5073474;28;20052;-84
2022/01/14 05:13:46;;;;;;;12.95;3.75;;;;;;;;;;5073467;28;20794;-85
2022/01/14 05:16:13;;;;;;;19.92;3.97;;;;;;;;;;5074519;28;20040;-84
2022/01/14 05:18:41;;;;;;;13.88;3.45;;;;;;;;;;5072787;28;20106;-85
2022/01/14 05:21:08;;;;;;;22.55;5.22;;;;;;;;;;5073673;28;20056;-85
2022/01/14 05:23:38;;;;;;;14.57;3.60;;;;;;;;;;5072878;28;20135;-84
2022/01/14 05:26:05;;;;;;;21.20;3.17;;;;;;;;;;5072664;28;20072;-85
2022/01/14 05:28:32;;;;;;;23.38;5.90;;;;;;;;;;5072351;28;20087;-84
2022/01/14 05:31:00;;;;;;;14.05;3.28;;;;;;;;;;5073684;28;20131;-85
2022/01/14 05:33:31;;;;;;;16.38;2.78;;;;;;;;;;5073735;28;20052;-84
2022/01/14 05:35:58;;;;;;;19.73;3.45;;;;;;;;;;5073428;28;20777;-84
2022/01/14 05:38:26;;;;;;;15.43;4.43;;;;;;;;;;5081000;28;20491;-85
2022/01/14 05:40:53;;;;;;;19.23;3.60;;;;;;;;;;5073416;28;20126;-84
2022/01/14 05:43:20;;;;;;;23.95;5.05;;;;;;;;;;5073221;28;20083;-84
2022/01/14 05:45:47;;;;;;;32.47;4.35;;;;;;;;;;5073864;28;20433;-85
2022/01/14 05:48:14;;;;;;;11.38;4.35;;;;;;;;;;5071911;28;20087;-86
2022/01/14 05:50:42;;;;;;;21.58;3.72;;;;;;;;;;5071680;28;20059;-85
2022/01/14 05:53:11;;;;;;;11.13;2.83;;;;;;;;;;5071628;28;20133;-83
2022/01/14 05:55:38;;;;;;;21.63;3.28;;;;;;;;;;5071272;28;20123;-85
2022/01/14 05:58:05;;;;;;;18.38;5.43;;;;;;;;;;5072016;28;20051;-84
2022/01/14 06:00:34;;;;;;;14.60;2.90;;;;;;;;;;5070670;28;20541;-84
2022/01/14 06:03:02;;;;;;;24.05;3.70;;;;;;;;;;5067693;28;20048;-83
2022/01/14 06:05:33;;;;;;;35.85;5.18;;;;;;;;;;5073233;28;20056;-82
2022/01/14 06:08:00;;;;;;;21.30;3.58;;;;;;;;;;5080577;28;20072;-81
2022/01/14 06:10:28;;;;;;;18.83;4.18;;;;;;;;;;5070591;28;20044;-81
2022/01/14 06:12:55;;;;;;;18.90;3.35;;;;;;;;;;5067883;28;20155;-82
2022/01/14 06:15:23;;;;;;;11.57;3.67;;;;;;;;;;5070747;28;20068;-80
2022/01/14 06:17:50;;;;;;;20.40;3.72;;;;;;;;;;5071221;28;20110;-82
2022/01/14 06:20:19;;;;;;;39.80;7.35;;;;;;;;;;5069904;28;20128;-80
2022/01/14 06:22:46;;;;;;;23.98;5.18;;;;;;;;;;5071329;28;20442;-81
2022/01/14 06:25:14;;;;;;;22.92;5.25;;;;;;;;;;5070680;28;20057;-82
2022/01/14 06:27:41;;;;;;;20.25;3.78;;;;;;;;;;5069259;28;20062;-82
2022/01/14 06:30:08;;;;;;;22.05;3.80;;;;;;;;;;5070055;28;20061;-80
2022/01/14 06:32:43;;;;;;;22.67;3.92;;;;;;;;;;5075269;28;20079;-80
2022/01/14 06:35:11;;;;;;;17.15;3.63;;;;;;;;;;5070426;28;20119;-81
2022/01/14 06:37:38;;;;;;;18.35;3.42;;;;;;;;;;5073518;28;20094;-77
2022/01/14 06:40:06;;;;;;;18.80;3.50;;;;;;;;;;5067036;28;20083;-80
2022/01/14 06:42:33;;;;;;;31.25;5.72;;;;;;;;;;5071304;28;20851;-81
2022/01/14 06:45:01;;;;;;;20.45;4.30;;;;;;;;;;5070359;28;20139;-79
2022/01/14 06:47:31;;;;;;;13.82;3.65;;;;;;;;;;5071960;28;20495;-80
2022/01/14 06:49:59;;;;;;;13.35;3.80;;;;;;;;;;5070910;28;20151;-81
2022/01/14 06:52:26;;;;;;;16.48;7.38;;;;;;;;;;5072442;28;20139;-82
2022/01/14 06:54:55;;;;;;;12.20;4.28;;;;;;;;;;5070871;28;20132;-80
2022/01/14 06:57:24;;;;;;;14.38;3.92;;;;;;;;;;5073764;28;20071;-80
2022/01/14 06:59:52;;;;;;;23.17;4.22;;;;;;;;;;5070497;28;20072;-80
2022/01/14 07:02:21;;;;;;;19.98;6.00;;;;;;;;;;5070831;28;20144;-79
2022/01/14 07:04:48;;;;;;;16.90;6.28;;;;;;;;;;5071557;28;20127;-80
2022/01/14 07:07:16;;;;;;;19.52;3.97;;;;;;;;;;5073959;28;20174;-79
2022/01/14 07:09:56;;;;;;;17.70;5.47;;;;;;;;;;5071388;28;20083;-80
2022/01/14 07:12:25;;;;;;;21.58;4.72;;;;;;;;;;5070777;28;20678;-80
2022/01/14 07:14:54;;;;;;;14.55;4.40;;;;;;;;;;5070120;28;20044;-79
2022/01/14 07:17:21;;;;;;;22.42;4.35;;;;;;;;;;5070481;28;20079;-79
2022/01/14 07:19:51;;;;;;;16.38;4.10;;;;;;;;;;5071667;28;20836;-79
2022/01/14 07:22:20;;;;;;;14.40;4.75;;;;;;;;;;5071840;28;20127;-80
2022/01/14 07:24:47;;;;;;;18.67;4.65;;;;;;;;;;5071778;28;20119;-80
2022/01/14 07:27:15;;;;;;;20.67;4.80;;;;;;;;;;5071596;28;20131;-79
2022/01/14 07:29:42;;;;;;;17.45;3.78;;;;;;;;;;5069752;28;20190;-79
2022/01/14 07:32:09;;;;;;;15.95;4.20;;;;;;;;;;5080808;28;20048;-80
2022/01/14 07:34:40;;;;;;;20.95;4.22;;;;;;;;;;5070467;28;20119;-80
2022/01/14 07:37:08;;;;;;;22.52;4.38;;;;;;;;;;5074110;28;20051;-79
2022/01/14 07:39:36;;;;;;;21.55;5.60;;;;;;;;;;5071203;28;20143;-78
2022/01/14 07:42:04;;;;;;;24.63;4.65;;;;;;;;;;5069911;28;20052;-79
2022/01/14 07:44:31;;;;;;;18.45;4.60;;;;;;;;;;5071143;28;20071;-80
2022/01/14 07:46:58;;;;;;;22.17;3.50;;;;;;;;;;5070189;28;20479;-79
2022/01/14 07:49:26;;;;;;;14.18;4.15;;;;;;;;;;5069548;28;20531;-79
2022/01/14 07:51:54;;;;;;;10.75;3.42;;;;;;;;;;5070597;28;20082;-79
2022/01/14 07:54:21;;;;;;;12.02;4.25;;;;;;;;;;5070054;28;20123;-79
2022/01/14 07:56:51;;;;;;;17.77;3.63;;;;;;;;;;5070379;28;20135;-79
2022/01/14 07:59:18;;;;;;;10.13;3.85;;;;;;;;;;5070484;28;20040;-79
2022/01/14 08:01:46;;;;;;;25.77;4.50;;;;;;;;;;5069422;28;20751;-79
2022/01/14 08:04:15;;;;;;;15.02;4.40;;;;;;;;;;5065516;28;20052;-79
2022/01/14 08:06:49;;;;;;;22.30;4.53;;;;;;;;;;5077724;28;20583;-78
2022/01/14 08:09:16;;;;;;;24.08;4.45;;;;;;;;;;5068389;28;20051;-79
2022/01/14 08:11:44;;;;;;;15.75;4.28;;;;;;;;;;5068064;28;20052;-79
2022/01/14 08:14:12;;;;;;;21.33;4.07;;;;;;;;;;5066117;28;20063;-79
2022/01/14 08:16:40;;;;;;;12.98;4.05;;;;;;;;;;5064337;28;20784;-80
2022/01/14 08:19:08;;;;;;;21.15;4.63;;;;;;;;;;5067843;28;20123;-79
2022/01/14 08:21:35;;;;;;;21.95;4.78;;;;;;;;;;5068514;28;20098;-80
2022/01/14 08:24:02;;;;;;;14.15;4.32;;;;;;;;;;5069288;28;20050;-79
2022/01/14 08:26:29;;;;;;;18.88;3.55;;;;;;;;;;5068474;28;20493;-79
2022/01/14 08:28:56;;;;;;;13.48;4.22;;;;;;;;;;5068927;28;20085;-79
2022/01/14 08:31:24;;;;;;;21.83;4.13;;;;;;;;;;5068897;28;20169;-79
2022/01/14 08:33:51;;;;;;;17.83;3.22;;;;;;;;;;5067073;28;20679;-79
2022/01/14 08:36:18;;;;;;;9.52;3.58;;;;;;;;;;5067959;28;20782;-79
2022/01/14 08:38:46;;;;;;;19.92;4.65;;;;;;;;;;5084032;28;20131;-76
2022/01/14 08:41:13;;;;;;;17.15;4.03;;;;;;;;;;5085683;28;20690;-76
2022/01/14 08:43:40;;;;;;;14.15;3.97;;;;;;;;;;5064013;28;20047;-76
2022/01/14 08:46:07;;;;;;;16.67;3.75;;;;;;;;;;5065116;28;20071;-76
2022/01/14 08:48:35;;;;;;;15.05;4.13;;;;;;;;;;5063594;28;20049;-76
2022/01/14 08:51:02;;;;;;;15.57;4.53;;;;;;;;;;5065116;28;20555;-76
2022/01/14 08:53:30;;;;;;;19.23;4.70;;;;;;;;;;5064615;28;20045;-76
2022/01/14 08:55:57;;;;;;;16.20;5.05;;;;;;;;;;5063281;28;20043;-76
2022/01/14 08:58:24;;;;;;;27.60;8.20;;;;;;;;;;5064792;28;20135;-76
2022/01/14 09:00:52;;;;;;;24.70;7.80;;;;;;;;;;5063803;28;20087;-76
2022/01/14 09:03:19;;;;;;;20.85;6.55;;;;;;;;;;5062709;28;20043;-76
2022/01/14 09:05:47;;;;;;;22.23;5.45;;;;;;;;;;5064810;28;20053;-76
2022/01/14 09:08:14;;;;;;;18.85;4.80;;;;;;;;;;5063518;28;20136;-75
2022/01/14 09:10:41;;;;;;;25.05;4.90;;;;;;;;;;5064479;28;20777;-76
2022/01/14 09:13:08;;;;;;;35.08;7.38;;;;;;;;;;5060826;28;20045;-76
2022/01/14 09:15:36;;;;;;;24.60;5.60;;;;;;;;;;5063413;28;20481;-76
2022/01/14 09:18:04;;;;;;;11.88;4.45;;;;;;;;;;5064406;28;20045;-75
2022/01/14 09:20:32;;;;;;;15.73;4.07;;;;;;;;;;5064345;28;20144;-76
2022/01/14 09:22:59;;;;;;;15.82;4.35;;;;;;;;;;5062735;28;20147;-76
2022/01/14 09:25:27;;;;;;;16.80;4.85;;;;;;;;;;5061796;28;20123;-76
2022/01/14 09:27:54;;;;;;;12.25;4.32;;;;;;;;;;5064744;28;20052;-76
2022/01/14 09:30:21;;;;;;;26.42;5.18;;;;;;;;;;5064173;28;20084;-77
2022/01/14 09:32:50;;;;;;;24.08;5.05;;;;;;;;;;5065803;28;20064;-77
2022/01/14 09:35:17;;;;;;;23.55;5.28;;;;;;;;;;5066268;28;20047;-76
2022/01/14 09:37:45;;;;;;;17.52;4.75;;;;;;;;;;5075457;28;20047;-77
2022/01/14 09:40:14;;;;;;;20.42;5.65;;;;;;;;;;5086834;28;20052;-78
2022/01/14 09:42:41;;;;;;;24.73;5.30;;;;;;;;;;5080061;28;20489;-78
2022/01/14 09:45:09;;;;;;;11.88;4.60;;;;;;;;;;5066853;28;20812;-78
2022/01/14 09:47:37;;;;;;;21.15;4.75;;;;;;;;;;5074164;28;20949;-78
2022/01/14 09:50:05;;;;;;;18.98;5.03;;;;;;;;;;5071322;28;20151;-78
2022/01/14 09:52:32;;;;;;;22.58;5.13;;;;;;;;;;5065886;28;20107;-77
2022/01/14 09:54:59;;;;;;;20.15;4.15;;;;;;;;;;5070386;28;20057;-77
2022/01/14 09:57:26;;;;;;;13.52;4.30;;;;;;;;;;5067861;28;20585;-78
2022/01/14 09:59:53;;;;;;;17.10;5.15;;;;;;;;;;5068041;28;20535;-77
2022/01/14 10:02:35;;;;;;;17.30;4.85;;;;;;;;;;5067743;28;20392;-78
2022/01/14 10:05:03;;;;;;;14.70;4.40;;;;;;;;;;5062432;28;20139;-77
2022/01/14 10:07:32;;;;;;;18.88;4.15;;;;;;;;;;5067944;28;20417;-78
2022/01/14 10:10:00;;;;;;;18.77;5.18;;;;;;;;;;5073667;28;20057;-78
2022/01/14 10:12:33;;;;;;;13.88;3.53;;;;;;;;;;5065851;28;20075;-77
2022/01/14 10:15:06;;;;;;;12.00;3.42;;;;;;;;;;5068017;28;20136;-78
2022/01/14 10:17:39;;;;;;;17.27;3.80;;;;;;;;;;5067148;28;20044;-78
2022/01/14 10:20:09;;;;;;;17.85;3.85;;;;;;;;;;5067474;28;20587;-79
2022/01/14 10:22:41;;;;;;;11.50;3.38;;;;;;;;;;5067151;28;20068;-80
2022/01/14 10:25:12;;;;;;;11.77;3.55;;;;;;;;;;5076414;28;20136;-80
2022/01/14 10:27:40;;;;;;;7.93;2.63;;;;;;;;;;5059307;28;20059;-79
2022/01/14 10:30:25;;;;;;;13.38;2.70;;;;;;;;;;5068638;28;20136;-79
2022/01/14 10:32:55;;;;;;;12.38;3.33;;;;;;;;;;5066364;28;20139;-79
2022/01/14 10:35:23;;;;;;;13.20;3.38;;;;;;;;;;5067939;28;20050;-79
2022/01/14 10:37:50;;;;;;;12.93;3.55;;;;;;;;;;5070718;28;20471;-79
2022/01/14 10:40:23;;;;;;;8.27;2.90;;;;;;;;;;5083736;28;20079;-79
2022/01/14 10:42:51;;;;;;;12.52;3.00;;;;;;;;;;5067935;28;20044;-79
2022/01/14 10:45:39;;;;;;;6.57;2.50;;;;;;;;;;5068246;28;20059;-79
2022/01/14 10:48:08;;;;;;;12.82;2.55;;;;;;;;;;5070245;28;20060;-80
2022/01/14 10:50:40;;;;;;;6.65;2.60;;;;;;;;;;5070222;28;20087;-81
2022/01/14 10:53:23;;;;;;;7.38;3.17;;;;;;;;;;5069987;28;20044;-80
2022/01/14 10:55:52;;;;;;;17.13;4.40;;;;;;;;;;5079962;28;20253;-79
2022/01/14 10:58:23;;;;;;;8.88;3.00;;;;;;;;;;5071249;28;20040;-78
2022/01/14 11:00:51;;;;;;;10.05;2.75;;;;;;;;;;5068612;28;20048;-79
2022/01/14 11:03:33;;;;;;;7.35;3.05;;;;;;;;;;5068087;28;20814;-76
2022/01/14 11:06:20;;;;;;;11.73;2.90;;;;;;;;;;5063757;28;20048;-76
2022/01/14 11:08:48;;;;;;;7.05;3.10;;;;;;;;;;5079199;28;20052;-77
2022/01/14 11:11:15;;;;;;;11.32;2.47;;;;;;;;;;5069561;28;20165;-76
2022/01/14 11:13:44;;;;;;;9.32;3.00;;;;;;;;;;5066638;28;20441;-79
2022/01/14 11:16:11;;;;;;;7.75;2.60;;;;;;;;;;5067752;28;20884;-79
2022/01/14 11:18:39;;;;;;;17.23;3.05;;;;;;;;;;5066537;28;20062;-78
2022/01/14 11:23:53;;;;;;;11.65;2.90;;;;;;;;;;5065346;28;20684;-76
2022/01/14 11:26:21;;;;;;;7.78;2.40;;;;;;;;;;5078149;28;20139;-77
2022/01/14 11:28:49;;;;;;;6.03;2.33;;;;;;;;;;5066317;28;20048;-77
2022/01/14 11:31:29;;;;;;;8.73;2.53;;;;;;;;;;5065842;28;20058;-77
2022/01/14 11:33:57;;;;;;;13.32;3.60;;;;;;;;;;5044999;28;20146;-77
2022/01/14 11:36:25;;;;;;;10.45;2.75;;;;;;;;;;5066892;28;20567;-77
2022/01/14 11:38:52;;;;;;;10.43;2.55;;;;;;;;;;5065916;28;20050;-77
2022/01/14 11:41:22;;;;;;;14.65;2.65;;;;;;;;;;5065752;28;20596;-78
2022/01/14 11:43:54;;;;;;;7.35;2.45;;;;;;;;;;5065684;28;20056;-78
2022/01/14 11:46:37;;;;;;;5.47;2.20;;;;;;;;;;5065872;28;20056;-75
2022/01/14 11:49:29;;;;;;;10.75;2.80;;;;;;;;;;5064255;28;20056;-75
2022/01/14 11:51:58;;;;;;;11.10;2.58;;;;;;;;;;5058518;28;20055;-75
2022/01/14 11:54:37;;;;;;;11.90;3.80;;;;;;;;;;5071071;28;20154;-75
2022/01/14 11:57:04;;;;;;;9.55;3.80;;;;;;;;;;5064849;28;20472;-74
2022/01/14 11:59:31;;;;;;;9.85;2.05;;;;;;;;;;5065382;28;20857;-74
2022/01/14 12:01:59;;;;;;;10.20;3.38;;;;;;;;;;5064405;28;20046;-76
2022/01/14 12:04:46;;;;;;;3.58;1.77;;;;;;;;;;5063886;28;20071;-76
2022/01/14 12:07:13;;;;;;;4.20;2.22;;;;;;;;;;5072752;28;20047;-77
2022/01/14 12:09:59;;;;;;;4.32;1.90;;;;;;;;;;5065579;28;20847;-76
2022/01/14 12:12:31;;;;;;;5.03;1.90;;;;;;;;;;5065226;28;20068;-76
2022/01/14 12:15:01;;;;;;;5.53;1.88;;;;;;;;;;5068903;28;20088;-77
2022/01/14 12:17:37;;;;;;;10.05;2.80;;;;;;;;;;5069477;28;20040;-76
2022/01/14 12:20:12;;;;;;;8.82;2.20;;;;;;;;;;5058400;28;20059;-76
2022/01/14 12:22:39;;;;;;;6.47;1.90;;;;;;;;;;5065467;28;20794;-76
2022/01/14 12:25:07;;;;;;;6.30;1.38;;;;;;;;;;5064875;28;20131;-76
2022/01/14 12:27:42;;;;;;;9.70;1.95;;;;;;;;;;5064257;28;20492;-76
2022/01/14 12:30:10;;;;;;;1.35;0.90;;;;;;;;;;5064890;28;20062;-75
2022/01/14 12:32:41;;;;;;;4.18;1.52;;;;;;;;;;5064554;28;20048;-79
2022/01/14 12:35:17;;;;;;;3.47;1.20;;;;;;;;;;5066350;28;20421;-76
2022/01/14 12:37:55;;;;;;;7.60;1.15;;;;;;;;;;5072885;28;20060;-75
2022/01/14 12:40:24;;;;;;;5.07;0.95;;;;;;;;;;5066665;28;20362;-77
2022/01/14 12:42:53;;;;;;;5.28;2.42;;;;;;;;;;5065007;28;20087;-76
2022/01/14 12:45:32;;;;;;;6.05;1.00;;;;;;;;;;5065274;28;20087;-76
2022/01/14 12:48:18;;;;;;;10.77;2.40;;;;;;;;;;5065580;28;20068;-76
2022/01/14 12:50:46;;;;;;;2.10;0.80;;;;;;;;;;5065204;28;20048;-76
2022/01/14 12:53:19;;;;;;;4.32;1.30;;;;;;;;;;5064722;28;20472;-77
2022/01/14 12:55:46;;;;;;;9.88;1.45;;;;;;;;;;5062833;28;20055;-76
2022/01/14 12:58:14;;;;;;;12.02;1.65;;;;;;;;;;5064624;28;20135;-76
2022/01/14 13:00:42;;;;;;;5.00;0.70;;;;;;;;;;5051882;28;20053;-77
2022/01/14 13:03:15;;;;;;;5.90;1.02;;;;;;;;;;5064865;28;20049;-77
2022/01/14 13:05:43;;;;;;;12.75;2.75;;;;;;;;;;5064926;28;20055;-76
2022/01/14 13:08:10;;;;;;;5.10;0.95;;;;;;;;;;5062963;28;20825;-77
2022/01/14 13:10:38;;;;;;;3.30;0.88;;;;;;;;;;5065380;28;20045;-77
2022/01/14 13:13:05;;;;;;;4.18;1.75;;;;;;;;;;5064595;28;20048;-76
2022/01/14 13:15:35;;;;;;;11.00;2.58;;;;;;;;;;5068415;28;20137;-76
2022/01/14 13:18:08;;;;;;;11.80;2.65;;;;;;;;;;5070010;28;20127;-77
2022/01/14 13:20:35;;;;;;;4.75;1.15;;;;;;;;;;5075835;28;20047;-77
2022/01/14 13:23:07;;;;;;;6.25;0.93;;;;;;;;;;5074345;28;20062;-77
2022/01/14 13:25:34;;;;;;;8.05;1.10;;;;;;;;;;5068069;28;20816;-77
2022/01/14 13:28:02;;;;;;;9.20;1.58;;;;;;;;;;5068245;28;20049;-79
2022/01/14 13:30:31;;;;;;;12.27;1.90;;;;;;;;;;5068751;28;20127;-78
2022/01/14 13:32:59;;;;;;;10.90;1.55;;;;;;;;;;5069484;28;20052;-78
2022/01/14 13:35:28;;;;;;;7.72;1.20;;;;;;;;;;5067768;28;20620;-77
2022/01/14 13:37:59;;;;;;;12.68;1.52;;;;;;;;;;5076654;28;20071;-77
2022/01/14 13:40:30;;;;;;;10.80;1.60;;;;;;;;;;5067972;28;20045;-77
2022/01/14 13:43:26;;;;;;;7.60;1.52;;;;;;;;;;5068648;28;20040;-78
2022/01/14 13:46:06;;;;;;;8.43;1.30;;;;;;;;;;5054879;28;20056;-78
2022/01/14 13:48:44;;;;;;;10.75;1.58;;;;;;;;;;5069154;28;20052;-80
2022/01/14 13:51:13;;;;;;;7.28;1.92;;;;;;;;;;5069405;28;20143;-79
2022/01/14 13:53:42;;;;;;;16.27;3.42;;;;;;;;;;5069653;28;20060;-83
2022/01/14 13:56:38;;;;;;;20.00;2.28;;;;;;;;;;5071570;28;20397;-81
2022/01/14 13:59:06;;;;;;;16.23;2.45;;;;;;;;;;5059070;28;20123;-80
2022/01/14 14:01:35;;;;;;;20.40;2.05;;;;;;;;;;5072290;28;20123;-80
2022/01/14 14:04:08;;;;;;;22.02;2.00;;;;;;;;;;5072994;28;20049;-81
2022/01/14 14:06:56;;;;;;;14.73;1.95;;;;;;;;;;5081850;28;20127;-81
2022/01/14 14:09:31;;;;;;;12.65;2.47;;;;;;;;;;5077286;28;20045;-81
2022/01/14 14:12:24;;;;;;;23.17;2.03;;;;;;;;;;5072216;28;20095;-81
2022/01/14 14:17:39;;;;;;;20.67;2.75;;;;;;;;;;5071424;28;20088;-81
2022/01/14 14:20:07;;;;;;;19.40;2.08;;;;;;;;;;5071702;28;20139;-80
2022/01/14 14:22:42;;;;;;;14.55;1.88;;;;;;;;;;5071944;28;20041;-80
2022/01/14 14:25:22;;;;;;;14.65;3.25;;;;;;;;;;5071470;28;20080;-81
2022/01/14 14:27:54;;;;;;;16.23;2.55;;;;;;;;;;5072799;28;20143;-81
2022/01/14 14:30:26;;;;;;;15.07;2.22;;;;;;;;;;5071071;28;20049;-81
2022/01/14 14:32:54;;;;;;;12.40;2.10;;;;;;;;;;5072234;28;20048;-85
2022/01/14 14:35:22;;;;;;;18.88;2.08;;;;;;;;;;5072598;28;20083;-82
2022/01/14 14:37:54;;;;;;;17.50;2.53;;;;;;;;;;5086691;28;20127;-83
2022/01/14 14:40:25;;;;;;;21.92;3.40;;;;;;;;;;5073817;28;20084;-82
2022/01/14 14:42:52;;;;;;;18.42;2.42;;;;;;;;;;5078446;28;20124;-83
2022/01/14 14:45:20;;;;;;;19.52;2.28;;;;;;;;;;5072260;28;20123;-80
2022/01/14 14:47:48;;;;;;;17.85;2.30;;;;;;;;;;5072006;28;20084;-80
2022/01/14 14:50:16;;;;;;;22.58;2.85;;;;;;;;;;5071892;28;20110;-82
2022/01/14 14:52:44;;;;;;;30.17;2.53;;;;;;;;;;5072316;28;20090;-82
2022/01/14 14:55:12;;;;;;;16.92;2.20;;;;;;;;;;5071017;28;20048;-80
2022/01/14 14:57:43;;;;;;;21.38;3.03;;;;;;;;;;5078865;28;20079;-81
2022/01/14 15:00:11;;;;;;;14.50;2.78;;;;;;;;;;5070724;28;20079;-81
2022/01/14 15:02:39;;;;;;;22.23;2.88;;;;;;;;;;5080203;28;20135;-80
2022/01/14 15:05:07;;;;;;;24.23;2.63;;;;;;;;;;5070889;28;20048;-78
2022/01/14 15:07:34;;;;;;;23.48;2.33;;;;;;;;;;5077157;28;20049;-79
2022/01/14 15:10:01;;;;;;;23.25;4.20;;;;;;;;;;5079162;28;20160;-79
2022/01/14 15:12:28;;;;;;;31.60;3.78;;;;;;;;;;5066988;28;20478;-77